createdAt,value
2023-02-22T00:01:36.343Z,6.58
2023-02-22T00:04:22.857Z,6.62
2023-02-22T00:07:09.809Z,6.65
2023-02-22T00:09:57.960Z,6.16
2023-02-22T00:12:46.224Z,6.73
2023-02-22T00:15:33.769Z,6.75
2023-02-22T00:18:20.763Z,6.77
2023-02-22T00:21:10.710Z,6.80
2023-02-22T00:23:57.537Z,6.84
2023-02-22T00:26:44.226Z,6.83
2023-02-22T00:29:34.451Z,6.79
2023-02-22T00:32:21.012Z,6.86
2023-02-22T00:35:08.431Z,6.81
2023-02-22T00:37:57.754Z,6.84
2023-02-22T00:40:45.434Z,6.79
2023-02-22T00:43:31.883Z,6.81
2023-02-22T00:46:20.137Z,6.84
2023-02-22T00:49:06.873Z,6.88
2023-02-22T00:51:54.876Z,6.93
2023-02-22T00:54:41.527Z,6.97
2023-02-22T00:57:28.175Z,7.04
2023-02-22T01:00:20.157Z,7.05
2023-02-22T01:03:09.459Z,7.07
2023-02-22T01:05:56.099Z,7.15
2023-02-22T01:08:46.272Z,7.11
2023-02-22T01:11:32.745Z,7.08
2023-02-22T01:14:21.210Z,7.06
2023-02-22T01:17:07.770Z,7.07
2023-02-22T01:19:56.245Z,7.08
2023-02-22T01:22:44.344Z,7.09
2023-02-22T01:25:32.484Z,7.08
2023-02-22T01:28:19.442Z,7.05
2023-02-22T01:31:06.844Z,7.07
2023-02-22T01:33:53.834Z,7.08
2023-02-22T01:36:42.968Z,7.03
2023-02-22T01:39:29.692Z,7.06
2023-02-22T01:42:16.568Z,7.01
2023-02-22T01:45:40.200Z,7.04
2023-02-22T01:48:33.531Z,7.03
2023-02-22T01:51:23.531Z,6.96
2023-02-22T01:54:16.179Z,7.01
2023-02-22T01:57:08.473Z,6.98
2023-02-22T02:00:10.002Z,7.05
2023-02-22T02:03:03.112Z,7.17
2023-02-22T02:05:52.742Z,7.06
2023-02-22T02:08:49.879Z,7.03
2023-02-22T02:11:40.486Z,7.02
2023-02-22T02:14:27.138Z,6.82
2023-02-22T02:17:19.782Z,6.73
2023-02-22T02:20:14.892Z,6.84
2023-02-22T02:23:09.876Z,6.89
2023-02-22T02:26:18.974Z,6.82
2023-02-22T02:29:24.264Z,6.94
2023-02-22T02:32:28.595Z,6.90
2023-02-22T02:35:26.487Z,6.86
2023-02-22T02:38:23.533Z,6.66
2023-02-22T02:41:14.334Z,6.59
2023-02-22T02:44:06.595Z,6.46
2023-02-22T02:46:57.749Z,6.41
2023-02-22T02:49:52.250Z,6.29
2023-02-22T02:52:41.940Z,6.25
2023-02-22T02:55:30.248Z,6.17
2023-02-22T02:58:20.317Z,6.06
2023-02-22T03:01:06.941Z,6.08
2023-02-22T03:04:22.265Z,5.90
2023-02-22T03:07:27.516Z,5.43
2023-02-22T03:10:26.410Z,5.66
2023-02-22T03:13:20.908Z,5.52
2023-02-22T03:16:17.127Z,5.44
2023-02-22T03:19:10.179Z,5.37
2023-02-22T03:22:03.883Z,5.35
2023-02-22T03:24:59.070Z,5.26
2023-02-22T03:27:50.487Z,5.24
2023-02-22T03:30:40.746Z,4.96
2023-02-22T03:33:36.418Z,5.28
2023-02-22T03:36:27.936Z,5.11
2023-02-22T03:39:23.347Z,5.03
2023-02-22T03:42:18.839Z,5.05
2023-02-22T03:45:10.052Z,4.88
2023-02-22T03:48:06.409Z,5.18
2023-02-22T03:50:55.160Z,5.09
2023-02-22T03:53:44.701Z,4.97
2023-02-22T03:56:36.854Z,4.97
2023-02-22T03:59:27.708Z,4.81
2023-02-22T04:02:14.219Z,4.70
2023-02-22T04:05:01.717Z,4.35
2023-02-22T04:07:48.199Z,4.63
2023-02-22T04:10:38.028Z,4.59
2023-02-22T04:13:24.711Z,4.57
2023-02-22T04:16:14.973Z,4.49
2023-02-22T04:19:01.708Z,4.58
2023-02-22T04:21:49.266Z,4.58
2023-02-22T04:24:41.893Z,4.61
2023-02-22T04:27:28.604Z,4.58
2023-02-22T04:30:18.713Z,4.57
2023-02-22T04:33:06.691Z,4.59
2023-02-22T04:35:53.634Z,4.57
2023-02-22T04:38:40.453Z,4.56
2023-02-22T04:41:27.378Z,4.63
2023-02-22T04:44:14.631Z,4.68
2023-02-22T04:47:01.126Z,4.77
2023-02-22T04:49:49.494Z,4.84
2023-02-22T04:52:36.163Z,4.88
2023-02-22T04:55:23.303Z,4.94
2023-02-22T04:58:10.671Z,4.96
2023-02-22T05:00:58.016Z,4.94
2023-02-22T05:03:45.131Z,4.92
2023-02-22T05:06:33.230Z,4.89
2023-02-22T05:09:20.449Z,4.86
2023-02-22T05:12:07.426Z,4.97
2023-02-22T05:14:54.191Z,4.83
2023-02-22T05:17:41.046Z,4.63
2023-02-22T05:20:29.718Z,4.82
2023-02-22T05:23:17.826Z,4.69
2023-02-22T05:26:06.613Z,4.63
2023-02-22T05:28:53.115Z,4.40
2023-02-22T05:31:42.024Z,4.43
2023-02-22T05:34:28.686Z,4.44
2023-02-22T05:37:15.578Z,4.47
2023-02-22T05:40:03.911Z,4.32
2023-02-22T05:42:51.066Z,4.24
2023-02-22T05:45:37.822Z,4.27
2023-02-22T05:48:24.669Z,4.13
2023-02-22T05:51:11.379Z,4.06
2023-02-22T05:53:58.398Z,3.92
2023-02-22T05:56:46.404Z,3.92
2023-02-22T05:59:33.047Z,3.79
2023-02-22T06:02:19.741Z,3.76
2023-02-22T06:05:07.015Z,3.80
2023-02-22T06:07:54.223Z,3.86
2023-02-22T06:10:40.984Z,3.85
2023-02-22T06:13:29.255Z,3.74
2023-02-22T06:16:15.957Z,3.71
2023-02-22T06:19:02.744Z,3.62
2023-02-22T06:21:53.149Z,3.57
2023-02-22T06:24:40.407Z,3.51
2023-02-22T06:27:27.081Z,3.47
2023-02-22T06:30:16.352Z,3.47
2023-02-22T06:33:03.036Z,3.46
2023-02-22T06:35:49.925Z,3.48
2023-02-22T06:38:36.523Z,3.46
2023-02-22T06:41:23.349Z,3.44
2023-02-22T06:44:10.805Z,3.46
2023-02-22T06:46:59.769Z,3.45
2023-02-22T06:49:46.100Z,3.54
2023-02-22T06:52:32.882Z,3.63
2023-02-22T06:55:22.043Z,3.62
2023-02-22T06:58:08.472Z,3.80
2023-02-22T07:00:55.636Z,3.86
2023-02-22T07:03:43.595Z,4.01
2023-02-22T07:06:30.317Z,4.13
2023-02-22T07:09:19.384Z,4.22
2023-02-22T07:12:08.127Z,4.34
2023-02-22T07:14:56.348Z,4.56
2023-02-22T07:17:43.014Z,4.53
2023-02-22T07:20:32.461Z,4.61
2023-02-22T07:23:19.391Z,4.72
2023-02-22T07:26:06.973Z,4.70
2023-02-22T07:28:53.456Z,4.86
2023-02-22T07:31:40.862Z,5.01
2023-02-22T07:34:27.662Z,5.12
2023-02-22T07:37:15.869Z,5.23
2023-02-22T07:40:02.502Z,5.33
2023-02-22T07:42:54.013Z,5.12
2023-02-22T07:45:41.305Z,5.40
2023-02-22T07:48:29.869Z,5.41
2023-02-22T07:51:17.763Z,5.56
2023-02-22T07:54:06.231Z,5.75
2023-02-22T07:56:52.915Z,6.01
2023-02-22T07:59:39.752Z,6.18
2023-02-22T08:02:26.895Z,6.47
2023-02-22T08:05:14.944Z,7.09
2023-02-22T08:08:02.286Z,7.64
2023-02-22T08:10:52.146Z,8.08
2023-02-22T08:13:40.001Z,8.63
2023-02-22T08:16:26.516Z,8.97
2023-02-22T08:19:13.324Z,9.37
2023-02-22T08:22:00.061Z,9.27
2023-02-22T08:24:46.776Z,9.31
2023-02-22T08:27:35.131Z,9.29
2023-02-22T08:30:24.254Z,9.26
2023-02-22T08:33:14.536Z,9.29
2023-02-22T08:36:01.807Z,9.46
2023-02-22T08:38:48.376Z,9.76
2023-02-22T08:41:35.224Z,9.94
2023-02-22T08:44:24.339Z,10.16
2023-02-22T08:47:11.062Z,10.33
2023-02-22T08:49:57.860Z,10.40
2023-02-22T08:52:44.732Z,10.45
2023-02-22T08:55:34.497Z,10.64
2023-02-22T08:58:20.989Z,10.74
2023-02-22T09:01:09.451Z,10.85
2023-02-22T09:03:56.269Z,11.09
2023-02-22T09:06:43.259Z,11.02
2023-02-22T09:09:30.301Z,11.22
2023-02-22T09:12:16.846Z,11.29
2023-02-22T09:15:03.538Z,11.45
2023-02-22T09:17:52.385Z,11.30
2023-02-22T09:20:39.049Z,11.50
2023-02-22T09:23:27.453Z,11.41
2023-02-22T09:26:16.118Z,11.46
2023-02-22T09:29:02.807Z,11.57
2023-02-22T09:31:50.894Z,11.62
2023-02-22T09:34:45.912Z,11.53
2023-02-22T09:37:32.754Z,11.53
2023-02-22T09:40:25.311Z,11.50
2023-02-22T09:43:26.419Z,11.42
2023-02-22T09:46:31.892Z,11.34
2023-02-22T09:49:25.122Z,11.58
2023-02-22T09:52:19.841Z,11.71
2023-02-22T09:55:10.338Z,11.79
2023-02-22T09:57:58.986Z,11.71
2023-02-22T10:00:48.982Z,11.65
2023-02-22T10:03:44.006Z,11.66
2023-02-22T10:06:31.557Z,11.52
2023-02-22T10:09:19.887Z,11.63
2023-02-22T10:12:13.078Z,11.66
2023-02-22T10:15:41.208Z,11.81
2023-02-22T10:18:45.367Z,11.85
2023-02-22T10:21:42.686Z,11.99
2023-02-22T10:24:40.063Z,11.97
2023-02-22T10:27:32.983Z,11.75
2023-02-22T10:30:25.445Z,12.01
2023-02-22T10:33:16.809Z,12.01
2023-02-22T10:36:04.319Z,12.14
2023-02-22T10:38:56.398Z,12.20
2023-02-22T10:41:51.499Z,12.14
2023-02-22T10:44:39.825Z,11.99
2023-02-22T10:47:26.952Z,12.00
2023-02-22T10:50:16.203Z,12.03
2023-02-22T10:53:02.736Z,12.21
2023-02-22T10:56:12.881Z,12.09
2023-02-22T10:59:04.508Z,12.06
2023-02-22T11:01:51.179Z,12.06
2023-02-22T11:04:47.641Z,11.95
2023-02-22T11:07:35.759Z,12.27
2023-02-22T11:10:32.324Z,12.30
2023-02-22T11:13:20.156Z,12.39
2023-02-22T11:16:21.408Z,12.33
2023-02-22T11:19:20.763Z,12.30
2023-02-22T11:22:14.910Z,12.20
2023-02-22T11:25:07.571Z,12.24
2023-02-22T11:27:55.142Z,12.19
2023-02-22T11:30:44.065Z,12.09
2023-02-22T11:33:32.633Z,12.14
2023-02-22T11:36:32.478Z,12.17
2023-02-22T11:39:25.218Z,12.32
2023-02-22T11:42:24.297Z,12.39
2023-02-22T11:45:14.221Z,12.35
2023-02-22T11:48:02.561Z,12.69
2023-02-22T11:51:04.278Z,12.45
2023-02-22T11:54:08.216Z,12.58
2023-02-22T11:57:07.316Z,12.29
2023-02-22T12:00:08.149Z,12.44
2023-02-22T12:03:24.679Z,12.50
2023-02-22T12:06:25.034Z,12.77
2023-02-22T12:09:17.795Z,12.71
2023-02-22T12:12:15.912Z,12.79
2023-02-22T12:15:08.959Z,13.00
2023-02-22T12:18:06.107Z,12.95
2023-02-22T12:20:56.933Z,12.96
2023-02-22T12:23:51.991Z,12.86
2023-02-22T12:26:42.443Z,13.04
2023-02-22T12:29:37.661Z,12.86
2023-02-22T12:32:33.515Z,12.77
2023-02-22T12:35:24.550Z,12.90
2023-02-22T12:38:22.856Z,12.85
2023-02-22T12:41:18.599Z,12.98
2023-02-22T12:44:10.913Z,13.01
2023-02-22T12:47:00.698Z,13.16
2023-02-22T12:49:53.255Z,13.31
2023-02-22T12:52:45.366Z,13.04
2023-02-22T12:55:38.213Z,13.03
2023-02-22T12:58:31.471Z,12.85
2023-02-22T13:01:21.795Z,12.75
2023-02-22T13:04:20.070Z,13.13
2023-02-22T13:07:26.845Z,13.14
2023-02-22T13:10:40.675Z,13.12
2023-02-22T13:13:37.716Z,13.08
2023-02-22T13:16:37.568Z,13.28
2023-02-22T13:19:34.718Z,12.84
2023-02-22T13:22:28.263Z,12.68
2023-02-22T13:25:17.865Z,12.84
2023-02-22T13:28:20.999Z,13.01
2023-02-22T13:31:25.300Z,12.84
2023-02-22T13:34:26.072Z,13.09
2023-02-22T13:37:42.574Z,13.04
2023-02-22T13:41:00.327Z,12.99
2023-02-22T13:44:15.646Z,12.85
2023-02-22T13:47:40.787Z,12.56
2023-02-22T13:50:43.506Z,12.47
2023-02-22T13:53:37.281Z,12.52
2023-02-22T13:56:25.302Z,12.61
2023-02-22T13:59:28.287Z,12.42
2023-02-22T14:02:36.812Z,12.39
2023-02-22T14:05:53.824Z,12.50
2023-02-22T14:08:44.357Z,12.47
2023-02-22T14:11:54.294Z,12.46
2023-02-22T14:15:28.617Z,12.50
2023-02-22T14:18:18.541Z,12.60
2023-02-22T14:21:07.691Z,12.52
2023-02-22T14:23:55.978Z,12.59
2023-02-22T14:26:59.424Z,12.48
2023-02-22T14:29:54.610Z,12.44
2023-02-22T14:32:42.860Z,12.40
2023-02-22T14:35:49.067Z,12.47
2023-02-22T14:38:36.609Z,12.55
2023-02-22T14:41:27.897Z,12.54
2023-02-22T14:44:16.866Z,12.53
2023-02-22T14:47:08.446Z,12.41
2023-02-22T14:50:02.552Z,12.46
2023-02-22T14:52:56.849Z,12.37
2023-02-22T14:55:47.763Z,12.50
2023-02-22T14:58:39.131Z,12.45
2023-02-22T15:01:44.493Z,12.44
2023-02-22T15:04:34.547Z,12.41
2023-02-22T15:07:27.540Z,12.37
2023-02-22T15:10:22.256Z,12.40
2023-02-22T15:13:18.877Z,12.39
2023-02-22T15:16:08.069Z,12.39
2023-02-22T15:18:56.673Z,12.27
2023-02-22T15:21:47.357Z,12.40
2023-02-22T15:24:37.889Z,12.50
2023-02-22T15:27:24.774Z,12.45
2023-02-22T15:30:21.333Z,12.28
2023-02-22T15:33:16.725Z,12.37
2023-02-22T15:36:03.585Z,12.32
2023-02-22T15:38:51.842Z,12.08
2023-02-22T15:41:39.745Z,12.21
2023-02-22T15:44:26.577Z,12.10
2023-02-22T15:47:16.892Z,11.95
2023-02-22T15:50:25.805Z,12.00
2023-02-22T15:53:26.801Z,11.96
2023-02-22T15:56:17.329Z,11.82
2023-02-22T15:59:13.501Z,11.69
2023-02-22T16:02:01.024Z,11.69
2023-02-22T16:04:59.047Z,11.54
2023-02-22T16:07:49.733Z,11.62
2023-02-22T16:10:37.121Z,11.54
2023-02-22T16:13:32.102Z,11.45
2023-02-22T16:16:31.045Z,11.32
2023-02-22T16:19:31.445Z,11.39
2023-02-22T16:22:28.012Z,11.35
2023-02-22T16:25:27.341Z,11.25
2023-02-22T16:28:28.300Z,11.25
2023-02-22T16:31:14.970Z,11.08
2023-02-22T16:34:03.712Z,11.01
2023-02-22T16:36:51.731Z,11.06
2023-02-22T16:39:40.194Z,10.96
2023-02-22T16:42:27.763Z,10.91
2023-02-22T16:45:17.118Z,10.91
2023-02-22T16:48:15.859Z,10.71
2023-02-22T16:51:14.894Z,10.63
2023-02-22T16:54:04.908Z,10.75
2023-02-22T16:56:57.572Z,10.74
2023-02-22T16:59:45.033Z,10.68
2023-02-22T17:02:35.118Z,10.63
2023-02-22T17:05:22.626Z,10.65
2023-02-22T17:08:10.899Z,10.65
2023-02-22T17:11:00.845Z,10.64
2023-02-22T17:13:51.992Z,10.59
2023-02-22T17:16:38.800Z,10.66
2023-02-22T17:19:25.763Z,10.56
2023-02-22T17:22:18.364Z,10.56
2023-02-22T17:25:20.278Z,10.36
2023-02-22T17:28:08.080Z,10.24
2023-02-22T17:31:00.542Z,10.23
2023-02-22T17:33:47.250Z,10.23
2023-02-22T17:36:36.471Z,10.06
2023-02-22T17:39:23.106Z,10.06
2023-02-22T17:42:11.338Z,10.07
2023-02-22T17:44:58.136Z,9.99
2023-02-22T17:47:45.367Z,10.00
2023-02-22T17:50:32.677Z,10.06
2023-02-22T17:53:22.774Z,10.08
2023-02-22T17:56:11.288Z,10.01
2023-02-22T17:58:59.286Z,9.83
2023-02-22T18:01:46.200Z,9.85
2023-02-22T18:04:34.834Z,9.93
2023-02-22T18:07:21.321Z,9.87
2023-02-22T18:10:12.026Z,9.73
2023-02-22T18:13:02.079Z,9.89
2023-02-22T18:15:50.893Z,9.91
2023-02-22T18:18:37.738Z,9.81
2023-02-22T18:21:26.872Z,9.63
2023-02-22T18:24:13.714Z,9.62
2023-02-22T18:27:00.694Z,9.59
2023-02-22T18:29:47.461Z,9.42
2023-02-22T18:32:35.538Z,9.35
2023-02-22T18:35:22.493Z,9.26
2023-02-22T18:38:12.299Z,9.15
2023-02-22T18:41:03.056Z,9.00
2023-02-22T18:43:51.024Z,8.97
2023-02-22T18:46:37.975Z,8.81
2023-02-22T18:49:29.426Z,8.71
2023-02-22T18:52:16.210Z,8.56
2023-02-22T18:55:02.999Z,8.56
2023-02-22T18:57:50.771Z,8.42
2023-02-22T19:00:38.085Z,8.33
2023-02-22T19:03:24.807Z,8.19
2023-02-22T19:06:12.891Z,8.18
2023-02-22T19:09:02.272Z,8.17
2023-02-22T19:11:50.926Z,8.02
2023-02-22T19:14:37.879Z,7.93
2023-02-22T19:17:24.952Z,7.84
2023-02-22T19:20:11.925Z,7.79
2023-02-22T19:22:59.954Z,7.56
2023-02-22T19:25:48.642Z,7.53
2023-02-22T19:28:35.109Z,7.47
2023-02-22T19:31:26.508Z,7.43
2023-02-22T19:34:15.110Z,7.55
2023-02-22T19:37:02.268Z,7.40
2023-02-22T19:39:50.454Z,7.53
2023-02-22T19:42:37.240Z,7.47
2023-02-22T19:45:25.432Z,7.39
2023-02-22T19:48:12.670Z,7.32
2023-02-22T19:51:03.670Z,7.42
2023-02-22T19:53:50.383Z,7.50
2023-02-22T19:56:38.375Z,7.44
2023-02-22T19:59:25.308Z,7.59
2023-02-22T20:02:13.059Z,7.52
2023-02-22T20:04:59.838Z,7.52
2023-02-22T20:07:46.634Z,7.52
2023-02-22T20:10:34.524Z,7.55
2023-02-22T20:13:22.547Z,7.38
2023-02-22T20:16:11.024Z,7.46
2023-02-22T20:18:57.962Z,7.47
2023-02-22T20:21:44.912Z,7.46
2023-02-22T20:24:31.716Z,7.47
2023-02-22T20:27:18.396Z,7.37
2023-02-22T20:30:09.761Z,7.39
2023-02-22T20:32:57.585Z,7.30
2023-02-22T20:35:44.877Z,7.33
2023-02-22T20:38:32.370Z,7.32
2023-02-22T20:41:24.963Z,7.33
2023-02-22T20:44:15.373Z,7.25
2023-02-22T20:47:05.411Z,7.34
2023-02-22T20:49:53.286Z,7.39
2023-02-22T20:52:41.018Z,7.36
2023-02-22T20:55:28.882Z,7.36
2023-02-22T20:58:16.601Z,7.30
2023-02-22T21:01:08.635Z,7.25
2023-02-22T21:04:01.631Z,7.27
2023-02-22T21:06:50.083Z,7.11
2023-02-22T21:09:39.528Z,6.84
2023-02-22T21:12:27.205Z,6.97
2023-02-22T21:15:14.902Z,7.02
2023-02-22T21:18:03.236Z,6.90
2023-02-22T21:20:52.536Z,6.94
2023-02-22T21:23:40.786Z,6.91
2023-02-22T21:26:29.945Z,6.92
2023-02-22T21:29:17.482Z,6.92
2023-02-22T21:32:05.155Z,6.77
2023-02-22T21:34:54.559Z,6.90
2023-02-22T21:37:43.929Z,6.92
2023-02-22T21:40:31.182Z,6.89
2023-02-22T21:43:19.972Z,6.86
2023-02-22T21:46:11.124Z,6.79
2023-02-22T21:48:59.542Z,6.77
2023-02-22T21:51:46.176Z,6.78
2023-02-22T21:54:34.326Z,6.72
2023-02-22T21:57:26.268Z,6.81
2023-02-22T22:00:17.483Z,6.81
2023-02-22T22:03:07.985Z,6.66
2023-02-22T22:05:54.365Z,6.68
2023-02-22T22:08:42.969Z,6.72
2023-02-22T22:11:31.845Z,6.96
2023-02-22T22:14:19.784Z,7.05
2023-02-22T22:17:09.457Z,6.94
2023-02-22T22:19:56.162Z,7.20
2023-02-22T22:22:45.413Z,6.93
2023-02-22T22:25:32.391Z,7.29
2023-02-22T22:28:20.790Z,7.25
2023-02-22T22:31:08.248Z,7.20
2023-02-22T22:33:56.364Z,7.18
2023-02-22T22:36:43.525Z,7.14
2023-02-22T22:39:30.016Z,7.13
2023-02-22T22:42:17.550Z,7.15
2023-02-22T22:45:09.116Z,7.17
2023-02-22T22:47:57.204Z,7.19
2023-02-22T22:50:46.591Z,7.15
2023-02-22T22:53:34.401Z,7.12
2023-02-22T22:56:26.537Z,6.89
2023-02-22T22:59:13.744Z,7.06
2023-02-22T23:02:03.208Z,7.08
2023-02-22T23:05:03.440Z,7.10
2023-02-22T23:07:51.791Z,7.07
2023-02-22T23:10:39.767Z,7.02
2023-02-22T23:13:27.095Z,7.02
2023-02-22T23:16:13.650Z,7.00
2023-02-22T23:19:01.725Z,6.89
2023-02-22T23:21:49.818Z,6.83
2023-02-22T23:24:38.229Z,6.88
2023-02-22T23:27:32.107Z,6.86
2023-02-22T23:30:20.811Z,6.92
2023-02-22T23:33:07.262Z,6.83
2023-02-22T23:35:55.322Z,6.71
2023-02-22T23:38:42.733Z,6.69
2023-02-22T23:41:29.933Z,6.62
2023-02-22T23:44:17.935Z,6.67
2023-02-22T23:47:04.822Z,6.61
2023-02-22T23:49:51.741Z,6.66
2023-02-22T23:52:40.061Z,6.60
2023-02-22T23:55:27.730Z,6.56
2023-02-22T23:58:14.407Z,6.56
